Andrews Bridge, Pennsylvania
Current Conditions -  °F | °C
As of 4:55 PM on Thursday 27 Nov 2014 (Local Time) from KMQS Reporting Station
Clear Clear  
Wind Chill: 27°   Ceiling: Unl
Heat Index: 32°   Visibility: 10mi
Dew Point: 28°   Wind: 5mph
Humidity: 87%   Direction: 310°NW
Pressure: 30.04"   Gusts: NA
Location:  39.9118°N, 76.0265°W
Report Text: KMQS 272155Z AUTO 31004KT 10SM CLR 00/M02 A3004 RMK AO2
Loading
Personal Weather Stations






























Interactive Weather Map New forecast layout! Learn more

10-Day Weather Forecast

Advertisements
Track Severe Weather on mobile